Brimley, MI

1:33 AM EST on January 28, 2015 (GMT -0500)
BMCC Lake Superior | Change Station
CLOSE
Current Station
Personal Weather Station
Location: Brimley, MI
Elevation: 645 ft
Nearby Weather Stations

Elev 645 ft 46.45 °N, 84.61 °W | Updated 2 seconds ago

Partly Cloudy
Partly Cloudy
-3.8 °F
Feels Like -4 °F
N
0.0
Wind Variable Wind from South
Gusts 1.4 mph

Today
High -- | Low -- °F
--% Chance of Precip.
Yesterday
High -- | Low -- °F
Precip. -- in
8:06 AM 5:36 PM
First Quarter, 61% visible
Pressure 30.25 in
Visibility 10.0 miles
Clouds Clear
Windchill -4 °F
Dew Point -8 °F
Humidity 82%
Rainfall 0.00 in
Snow Depth Not available.
UV 0 out of 12
Pollen .10 out of 12
Air Quality Not available.
Flu Activity Not available.
METAR KANJ 280555Z AUTO 06003KT 10SM CLR M16/M19 A3021 RMK AO2 SLP244 T11561194 11111 21167 58012

More Conditions Fewer Conditions

Pressure 30.25 in
Visibility 10.0 miles
Clouds Clear
Windchill -4 °F
Dew Point -8 °F
Humidity 82%
Rainfall 0.00 in
Snow Depth Not available.
UV 0 out of 12
Pollen .10 out of 12
Air Quality Not available.
Flu Activity Not available.
METAR KANJ 280555Z AUTO 06003KT 10SM CLR M16/M19 A3021 RMK AO2 SLP244 T11561194 11111 21167 58012

More Conditions Fewer Conditions

Nowcast | as of 1:00 am EST on January 28, 2015

At 2 am...mostly clear. Temperature 1 above. Light winds. At 4 am...partly cloudy. Temperature 1 below. Light winds.

×

10-Day Weather Forecast

Almanac

Astronomy

Jan. 28, 2015 Rise Set
Actual Time
Civil Twilight
Nautical Twilight
Astronomical Twilight
Moon
Length of Visible Light
Length of Day
Tomorrow will be .
, % of the Moon is Illuminated

Today's Extremes

State Highs State Lows

Community

WunderPhotos

Upload Photos

1,791,112 photos uploaded!

WunderBlogs® & News

Nearby

Air Quality

  Air Quality AQ Index Pollutant
Not available.

Snow Depth

Station Depth Elevation

Earthquake Activity

City Distance Mag. Time & Date
Minimum magnitude displayed is 2.5.

Coastal Water Temperatures

Place Temperature

Nearby Weather Stations